Time;durP1;ratioP1;P1;durP2;ratioP2;P2;SDS_P1;SDS_P2;PMS_P1;PMS_P2;Temp;Humidity;BMP_temperature;BMP_pressure;BME280_temperature;BME280_humidity;BME280_pressure;Samples;Min_cycle;Max_cycle;Signal;HPM_P1;HPM_P2
2023/05/06 00:01:40;;;;;;;0.10;0.10;;;;;;;;;;4974620;28;20755;-77
2023/05/06 00:04:26;;;;;;;0.10;0.10;;;;;;;;;;4976330;28;20176;-77
2023/05/06 00:07:12;;;;;;;0.10;0.10;;;;;;;;;;4977004;28;20386;-76
2023/05/06 00:09:58;;;;;;;0.10;0.10;;;;;;;;;;4973436;28;20026;-77
2023/05/06 00:12:44;;;;;;;0.10;0.10;;;;;;;;;;4975407;28;20125;-76
2023/05/06 00:15:29;;;;;;;0.10;0.10;;;;;;;;;;4975507;28;20042;-76
2023/05/06 00:18:15;;;;;;;0.10;0.10;;;;;;;;;;4975972;28;20184;-76
2023/05/06 00:21:01;;;;;;;0.10;0.10;;;;;;;;;;4977172;28;20431;-76
2023/05/06 00:23:47;;;;;;;0.10;0.10;;;;;;;;;;4974788;28;20058;-76
2023/05/06 00:26:32;;;;;;;0.10;0.10;;;;;;;;;;4975077;28;20042;-76
2023/05/06 00:29:18;;;;;;;0.10;0.10;;;;;;;;;;4975348;28;20735;-76
2023/05/06 00:32:04;;;;;;;0.10;0.10;;;;;;;;;;4962165;28;20113;-76
2023/05/06 00:34:50;;;;;;;0.10;0.10;;;;;;;;;;4974861;28;20498;-77
2023/05/06 00:37:36;;;;;;;0.00;0.00;;;;;;;;;;4959913;28;20046;-76
2023/05/06 00:40:22;;;;;;;0.10;0.10;;;;;;;;;;4976202;28;20030;-76
2023/05/06 00:43:07;;;;;;;0.10;0.10;;;;;;;;;;4975639;28;20108;-76
2023/05/06 00:45:55;;;;;;;0.10;0.10;;;;;;;;;;4963969;28;20042;-77
2023/05/06 00:48:41;;;;;;;0.10;0.10;;;;;;;;;;4973657;28;20188;-76
2023/05/06 00:51:27;;;;;;;0.10;0.10;;;;;;;;;;4961154;28;20030;-76
2023/05/06 00:54:13;;;;;;;0.10;0.10;;;;;;;;;;4974351;28;20045;-76
2023/05/06 00:56:58;;;;;;;0.10;0.10;;;;;;;;;;4975897;28;20118;-76
2023/05/06 00:59:44;;;;;;;0.10;0.10;;;;;;;;;;4974938;28;20558;-77
2023/05/06 01:02:30;;;;;;;0.10;0.10;;;;;;;;;;4973726;28;20110;-77
2023/05/06 01:05:17;;;;;;;0.10;0.10;;;;;;;;;;4961615;28;20053;-76
2023/05/06 01:08:11;;;;;;;0.10;0.10;;;;;;;;;;4973259;28;20030;-77
2023/05/06 01:11:01;;;;;;;0.10;0.10;;;;;;;;;;4955853;28;20030;-76
2023/05/06 01:14:00;;;;;;;0.10;0.10;;;;;;;;;;4961040;28;20032;-76
2023/05/06 01:16:49;;;;;;;0.10;0.10;;;;;;;;;;4974327;28;20038;-76
2023/05/06 01:19:40;;;;;;;0.10;0.10;;;;;;;;;;4959843;28;20108;-76
2023/05/06 01:22:27;;;;;;;0.10;0.10;;;;;;;;;;4972670;28;20113;-77
2023/05/06 01:25:20;;;;;;;0.10;0.10;;;;;;;;;;4973087;28;20070;-77
2023/05/06 01:28:09;;;;;;;0.10;0.10;;;;;;;;;;4974125;28;20117;-76
2023/05/06 01:30:58;;;;;;;0.10;0.10;;;;;;;;;;4973277;28;20150;-76
2023/05/06 01:33:57;;;;;;;0.15;0.15;;;;;;;;;;4976413;28;20038;-76
2023/05/06 01:37:03;;;;;;;0.03;0.03;;;;;;;;;;4958221;28;20140;-77
2023/05/06 01:39:50;;;;;;;0.10;0.10;;;;;;;;;;4973759;28;20185;-76
2023/05/06 01:42:36;;;;;;;0.10;0.10;;;;;;;;;;4971967;28;20122;-76
2023/05/06 01:45:24;;;;;;;0.10;0.10;;;;;;;;;;4972668;28;20030;-76
2023/05/06 01:48:10;;;;;;;0.10;0.10;;;;;;;;;;4973648;28;20586;-76
2023/05/06 01:50:56;;;;;;;0.00;0.00;;;;;;;;;;4975197;28;20047;-76
2023/05/06 01:53:42;;;;;;;0.10;0.10;;;;;;;;;;4957481;28;20113;-76
2023/05/06 01:56:31;;;;;;;0.10;0.10;;;;;;;;;;4974072;28;20446;-76
2023/05/06 01:59:17;;;;;;;0.10;0.10;;;;;;;;;;4967666;28;20080;-76
2023/05/06 02:02:03;;;;;;;0.10;0.10;;;;;;;;;;4959584;28;20049;-77
2023/05/06 02:04:51;;;;;;;0.10;0.10;;;;;;;;;;4961133;28;20274;-76
2023/05/06 02:07:37;;;;;;;0.10;0.10;;;;;;;;;;4957392;28;20109;-76
2023/05/06 02:10:23;;;;;;;0.10;0.10;;;;;;;;;;4959584;28;20040;-76
2023/05/06 02:13:17;;;;;;;0.10;0.10;;;;;;;;;;4958345;28;20502;-76
2023/05/06 02:16:03;;;;;;;0.10;0.10;;;;;;;;;;4973989;28;20066;-76
2023/05/06 02:18:48;;;;;;;0.10;0.10;;;;;;;;;;4958439;28;20050;-76
2023/05/06 02:21:35;;;;;;;0.00;0.00;;;;;;;;;;4958434;28;20081;-76
2023/05/06 02:24:21;;;;;;;0.10;0.10;;;;;;;;;;4954271;28;20058;-76
2023/05/06 02:27:06;;;;;;;0.10;0.10;;;;;;;;;;4957802;28;20046;-76
2023/05/06 02:29:52;;;;;;;0.10;0.10;;;;;;;;;;4957913;28;20031;-76
2023/05/06 02:32:38;;;;;;;0.10;0.10;;;;;;;;;;4956657;28;20035;-76
2023/05/06 02:35:24;;;;;;;0.10;0.10;;;;;;;;;;4972141;28;20478;-76
2023/05/06 02:38:10;;;;;;;0.10;0.10;;;;;;;;;;4962123;28;20104;-76
2023/05/06 02:40:55;;;;;;;0.10;0.10;;;;;;;;;;4973441;28;20487;-77
2023/05/06 02:43:41;;;;;;;0.10;0.10;;;;;;;;;;4958322;28;20191;-77
2023/05/06 02:46:27;;;;;;;0.10;0.10;;;;;;;;;;4971826;28;20046;-77
2023/05/06 02:49:12;;;;;;;0.10;0.10;;;;;;;;;;4974337;28;20081;-78
2023/05/06 02:51:58;;;;;;;0.10;0.10;;;;;;;;;;4971944;28;20515;-77
2023/05/06 02:54:44;;;;;;;0.10;0.10;;;;;;;;;;4973399;28;20062;-78
2023/05/06 02:57:32;;;;;;;0.10;0.10;;;;;;;;;;4972846;28;20042;-77
2023/05/06 03:00:18;;;;;;;0.10;0.10;;;;;;;;;;4974262;28;20116;-77
2023/05/06 03:03:04;;;;;;;0.30;0.10;;;;;;;;;;4972472;28;20031;-77
2023/05/06 03:05:50;;;;;;;0.10;0.10;;;;;;;;;;4971367;28;20040;-77
2023/05/06 03:08:35;;;;;;;0.00;0.00;;;;;;;;;;4959976;28;20030;-77
2023/05/06 03:11:22;;;;;;;0.15;0.15;;;;;;;;;;4957353;28;20042;-77
2023/05/06 03:14:08;;;;;;;0.10;0.10;;;;;;;;;;4972961;28;20438;-77
2023/05/06 03:16:54;;;;;;;0.10;0.10;;;;;;;;;;4957477;28;20105;-77
2023/05/06 03:19:40;;;;;;;0.10;0.10;;;;;;;;;;4946627;28;20051;-76
2023/05/06 03:22:28;;;;;;;0.10;0.10;;;;;;;;;;4931450;28;20285;-77
2023/05/06 03:25:16;;;;;;;0.10;0.10;;;;;;;;;;4925443;28;20476;-77
2023/05/06 03:28:01;;;;;;;0.10;0.10;;;;;;;;;;4939103;28;20436;-77
2023/05/06 03:30:49;;;;;;;0.10;0.10;;;;;;;;;;4937246;28;20129;-77
2023/05/06 03:33:35;;;;;;;0.10;0.10;;;;;;;;;;4951991;28;20138;-77
2023/05/06 03:36:26;;;;;;;0.10;0.10;;;;;;;;;;4932487;28;20085;-77
2023/05/06 03:39:13;;;;;;;0.10;0.10;;;;;;;;;;4933532;28;20492;-76
2023/05/06 03:42:01;;;;;;;0.10;0.10;;;;;;;;;;4938037;28;20034;-77
2023/05/06 03:44:47;;;;;;;0.10;0.10;;;;;;;;;;4933605;28;20074;-77
2023/05/06 03:47:33;;;;;;;0.10;0.10;;;;;;;;;;4930891;28;20049;-77
2023/05/06 03:50:20;;;;;;;0.00;0.00;;;;;;;;;;4938810;28;20062;-77
2023/05/06 03:53:07;;;;;;;0.10;0.10;;;;;;;;;;4931524;28;20118;-77
2023/05/06 03:55:54;;;;;;;0.10;0.10;;;;;;;;;;4945357;28;20192;-76
2023/05/06 03:58:40;;;;;;;0.10;0.10;;;;;;;;;;4940245;28;20101;-77
2023/05/06 04:01:29;;;;;;;0.10;0.10;;;;;;;;;;4956624;28;20778;-77
2023/05/06 04:04:15;;;;;;;0.10;0.10;;;;;;;;;;4944174;28;20035;-77
2023/05/06 04:07:02;;;;;;;0.10;0.10;;;;;;;;;;4957423;28;20382;-77
2023/05/06 04:09:48;;;;;;;0.10;0.10;;;;;;;;;;4957375;28;20100;-77
2023/05/06 04:12:34;;;;;;;0.10;0.10;;;;;;;;;;4955744;28;20031;-77
2023/05/06 04:15:20;;;;;;;0.10;0.10;;;;;;;;;;4943678;28;20043;-77
2023/05/06 04:18:07;;;;;;;0.10;0.10;;;;;;;;;;4957742;28;20042;-77
2023/05/06 04:20:55;;;;;;;0.10;0.10;;;;;;;;;;4943604;28;20053;-77
2023/05/06 04:23:41;;;;;;;0.10;0.10;;;;;;;;;;4957544;28;20039;-77
2023/05/06 04:26:28;;;;;;;0.10;0.10;;;;;;;;;;4931066;28;20077;-77
2023/05/06 04:29:14;;;;;;;0.10;0.10;;;;;;;;;;4937712;28;20231;-77
2023/05/06 04:32:11;;;;;;;0.10;0.10;;;;;;;;;;4941788;28;20510;-77
2023/05/06 04:34:57;;;;;;;0.10;0.10;;;;;;;;;;4956167;28;20351;-77
2023/05/06 04:37:44;;;;;;;0.10;0.10;;;;;;;;;;4933804;28;20061;-77
2023/05/06 04:40:38;;;;;;;0.10;0.10;;;;;;;;;;4930131;28;20178;-77
2023/05/06 04:43:26;;;;;;;0.10;0.10;;;;;;;;;;4951879;28;20279;-78
2023/05/06 04:46:16;;;;;;;0.10;0.10;;;;;;;;;;4931573;28;20539;-77
2023/05/06 04:49:03;;;;;;;0.10;0.10;;;;;;;;;;4943971;28;20122;-78
2023/05/06 04:51:49;;;;;;;0.10;0.10;;;;;;;;;;4957486;28;20447;-77
2023/05/06 04:54:35;;;;;;;0.10;0.10;;;;;;;;;;4944348;28;20038;-77
2023/05/06 04:57:21;;;;;;;0.10;0.10;;;;;;;;;;4944842;28;20045;-77
2023/05/06 05:00:09;;;;;;;0.10;0.10;;;;;;;;;;4937797;28;20449;-77
2023/05/06 05:02:54;;;;;;;0.10;0.10;;;;;;;;;;4942358;28;20611;-76
2023/05/06 05:05:40;;;;;;;0.10;0.10;;;;;;;;;;4935747;28;20068;-77
2023/05/06 05:08:33;;;;;;;0.10;0.10;;;;;;;;;;4936250;28;20121;-76
2023/05/06 05:11:19;;;;;;;0.20;0.20;;;;;;;;;;4936336;28;20177;-76
2023/05/06 05:14:05;;;;;;;0.10;0.10;;;;;;;;;;4937220;28;20093;-76
2023/05/06 05:16:51;;;;;;;0.10;0.10;;;;;;;;;;4936504;28;20118;-77
2023/05/06 05:19:37;;;;;;;0.10;0.10;;;;;;;;;;4966343;28;20055;-77
2023/05/06 05:22:23;;;;;;;0.10;0.10;;;;;;;;;;4962610;28;20121;-77
2023/05/06 05:25:09;;;;;;;0.15;0.15;;;;;;;;;;4965402;28;20482;-77
2023/05/06 05:27:55;;;;;;;0.10;0.10;;;;;;;;;;4961495;28;20035;-77
2023/05/06 05:30:41;;;;;;;0.10;0.10;;;;;;;;;;4961187;28;20068;-77
2023/05/06 05:33:28;;;;;;;0.10;0.10;;;;;;;;;;4962880;28;20065;-77
2023/05/06 05:36:15;;;;;;;0.10;0.10;;;;;;;;;;4961706;28;20051;-77
2023/05/06 05:39:02;;;;;;;0.10;0.10;;;;;;;;;;4969010;28;20392;-76
2023/05/06 05:41:50;;;;;;;0.10;0.10;;;;;;;;;;4961331;28;21144;-78
2023/05/06 05:44:39;;;;;;;0.20;0.20;;;;;;;;;;4973677;28;20038;-77
2023/05/06 05:47:25;;;;;;;0.10;0.10;;;;;;;;;;4976655;28;20068;-77
2023/05/06 05:50:11;;;;;;;0.10;0.10;;;;;;;;;;4975880;28;20313;-77
2023/05/06 05:52:58;;;;;;;0.10;0.10;;;;;;;;;;4960606;28;20049;-77
2023/05/06 05:55:45;;;;;;;0.10;0.10;;;;;;;;;;4961002;28;20542;-77
2023/05/06 05:58:31;;;;;;;0.10;0.10;;;;;;;;;;4963801;28;20414;-77
2023/05/06 06:01:18;;;;;;;0.10;0.10;;;;;;;;;;4958977;28;20125;-77
2023/05/06 06:04:04;;;;;;;0.10;0.10;;;;;;;;;;4944779;28;20041;-77
2023/05/06 06:06:50;;;;;;;0.10;0.10;;;;;;;;;;4975620;28;20033;-77
2023/05/06 06:09:37;;;;;;;0.15;0.15;;;;;;;;;;4958327;28;20410;-77
2023/05/06 06:12:23;;;;;;;0.10;0.10;;;;;;;;;;4961886;28;20044;-77
2023/05/06 06:15:10;;;;;;;0.10;0.10;;;;;;;;;;4965106;28;20035;-77
2023/05/06 06:17:57;;;;;;;0.10;0.10;;;;;;;;;;4963803;28;20122;-77
2023/05/06 06:20:45;;;;;;;0.10;0.10;;;;;;;;;;4947769;28;20062;-77
2023/05/06 06:23:33;;;;;;;0.10;0.10;;;;;;;;;;4945604;28;20042;-77
2023/05/06 06:26:18;;;;;;;0.10;0.10;;;;;;;;;;4945004;28;20054;-77
2023/05/06 06:29:04;;;;;;;0.10;0.10;;;;;;;;;;4963887;28;20086;-77
2023/05/06 06:31:51;;;;;;;0.10;0.10;;;;;;;;;;4954348;28;20042;-78
2023/05/06 06:34:36;;;;;;;0.10;0.10;;;;;;;;;;4959349;28;20547;-77
2023/05/06 06:37:22;;;;;;;0.10;0.10;;;;;;;;;;4958340;28;20531;-77
2023/05/06 06:40:09;;;;;;;0.10;0.10;;;;;;;;;;4961533;28;20526;-77
2023/05/06 06:46:05;;;;;;;0.10;0.10;;;;;;;;;;4923333;28;20984;-93
2023/05/06 06:48:51;;;;;;;0.00;0.00;;;;;;;;;;4914118;28;20043;-91
2023/05/06 06:51:36;;;;;;;0.10;0.10;;;;;;;;;;4958320;23;20048;-77
2023/05/06 06:54:22;;;;;;;0.10;0.10;;;;;;;;;;4910185;29;20511;-77
2023/05/06 06:57:08;;;;;;;0.10;0.10;;;;;;;;;;4926929;28;20074;-77
2023/05/06 06:59:54;;;;;;;0.10;0.10;;;;;;;;;;4914459;29;20381;-77
2023/05/06 07:02:40;;;;;;;0.10;0.10;;;;;;;;;;4914656;29;20048;-77
2023/05/06 07:05:26;;;;;;;0.10;0.10;;;;;;;;;;4915187;29;20042;-78
2023/05/06 07:08:11;;;;;;;0.10;0.10;;;;;;;;;;4916064;29;20034;-78
2023/05/06 07:10:57;;;;;;;0.10;0.10;;;;;;;;;;4914591;29;20119;-77
2023/05/06 07:13:43;;;;;;;0.10;0.10;;;;;;;;;;4915050;29;20072;-78
2023/05/06 07:16:29;;;;;;;0.10;0.10;;;;;;;;;;4913825;29;20079;-78
2023/05/06 07:19:14;;;;;;;0.10;0.10;;;;;;;;;;4918205;29;20046;-77
2023/05/06 07:22:03;;;;;;;0.10;0.10;;;;;;;;;;4915258;29;20032;-78
2023/05/06 07:24:49;;;;;;;0.10;0.10;;;;;;;;;;4915818;28;20042;-77
2023/05/06 07:27:35;;;;;;;0.10;0.10;;;;;;;;;;4913562;29;20063;-77
2023/05/06 07:30:21;;;;;;;0.10;0.10;;;;;;;;;;4914715;29;20456;-77
2023/05/06 07:33:07;;;;;;;0.10;0.10;;;;;;;;;;4927381;28;20512;-77
2023/05/06 07:35:53;;;;;;;0.10;0.10;;;;;;;;;;4917756;29;20082;-77
2023/05/06 07:38:39;;;;;;;0.10;0.10;;;;;;;;;;4917805;28;20035;-77
2023/05/06 07:41:25;;;;;;;0.10;0.10;;;;;;;;;;4914822;29;20500;-78
2023/05/06 07:44:11;;;;;;;0.10;0.10;;;;;;;;;;4916467;29;20120;-78
2023/05/06 07:46:57;;;;;;;0.10;0.10;;;;;;;;;;4917800;29;20564;-77
2023/05/06 07:49:42;;;;;;;0.10;0.10;;;;;;;;;;4916898;29;20584;-77
2023/05/06 07:52:28;;;;;;;0.10;0.10;;;;;;;;;;4915607;29;20044;-77
2023/05/06 07:55:14;;;;;;;0.10;0.10;;;;;;;;;;4917131;29;20469;-77
2023/05/06 07:58:00;;;;;;;0.10;0.10;;;;;;;;;;4918188;29;20036;-77
2023/05/06 08:00:45;;;;;;;0.10;0.10;;;;;;;;;;4905396;29;20046;-77
2023/05/06 08:03:31;;;;;;;0.10;0.10;;;;;;;;;;4915702;29;20066;-77
2023/05/06 08:06:17;;;;;;;0.10;0.10;;;;;;;;;;4914838;29;20047;-77
2023/05/06 08:09:02;;;;;;;0.10;0.10;;;;;;;;;;4915539;29;20036;-77
2023/05/06 08:11:49;;;;;;;0.10;0.10;;;;;;;;;;4917245;29;20051;-78
2023/05/06 08:14:34;;;;;;;0.10;0.10;;;;;;;;;;4916963;29;20094;-77
2023/05/06 08:17:20;;;;;;;0.05;0.05;;;;;;;;;;4914528;29;20051;-78
2023/05/06 08:20:06;;;;;;;0.10;0.10;;;;;;;;;;4917215;29;20099;-78
2023/05/06 08:22:52;;;;;;;0.10;0.10;;;;;;;;;;4915571;29;20031;-77
2023/05/06 08:25:37;;;;;;;0.10;0.10;;;;;;;;;;4914993;29;20046;-77
2023/05/06 08:28:24;;;;;;;0.10;0.10;;;;;;;;;;4915047;29;20485;-78
2023/05/06 08:31:09;;;;;;;0.10;0.10;;;;;;;;;;4916851;28;20035;-78
2023/05/06 08:33:55;;;;;;;0.10;0.10;;;;;;;;;;4915020;29;20540;-77
2023/05/06 08:36:41;;;;;;;0.10;0.10;;;;;;;;;;4913843;29;20617;-78
2023/05/06 08:39:26;;;;;;;0.10;0.10;;;;;;;;;;4916143;29;20517;-77
2023/05/06 08:42:12;;;;;;;0.10;0.10;;;;;;;;;;4916498;29;20040;-77
2023/05/06 08:44:58;;;;;;;0.10;0.10;;;;;;;;;;4915981;29;20042;-78
2023/05/06 08:47:47;;;;;;;0.10;0.10;;;;;;;;;;4913937;29;20036;-78
2023/05/06 08:50:39;;;;;;;0.10;0.10;;;;;;;;;;4921167;28;20055;-78
2023/05/06 08:53:25;;;;;;;0.10;0.10;;;;;;;;;;4933713;28;20023;-78
2023/05/06 08:56:12;;;;;;;0.10;0.10;;;;;;;;;;4932451;28;20088;-78
2023/05/06 08:58:58;;;;;;;0.10;0.10;;;;;;;;;;4937919;28;20070;-78
2023/05/06 09:01:44;;;;;;;0.10;0.10;;;;;;;;;;4931054;28;20032;-78
2023/05/06 09:04:30;;;;;;;0.05;0.05;;;;;;;;;;4934281;28;20491;-78
2023/05/06 09:07:15;;;;;;;0.10;0.10;;;;;;;;;;4922087;29;20404;-77
2023/05/06 09:10:05;;;;;;;0.10;0.10;;;;;;;;;;4930865;28;20031;-77
2023/05/06 09:12:52;;;;;;;0.10;0.10;;;;;;;;;;4931493;28;20064;-77
2023/05/06 09:15:39;;;;;;;0.10;0.10;;;;;;;;;;4933575;28;20031;-77
2023/05/06 09:18:24;;;;;;;0.17;0.17;;;;;;;;;;4935219;28;20040;-77
2023/05/06 09:21:10;;;;;;;0.10;0.10;;;;;;;;;;4935123;28;20060;-77
2023/05/06 09:23:56;;;;;;;0.10;0.10;;;;;;;;;;4905232;28;20529;-77
2023/05/06 09:26:45;;;;;;;0.20;0.20;;;;;;;;;;4935091;28;20074;-78
2023/05/06 09:29:31;;;;;;;0.10;0.10;;;;;;;;;;4934744;28;20391;-78
2023/05/06 09:32:17;;;;;;;0.10;0.10;;;;;;;;;;4933504;28;20633;-78
2023/05/06 09:35:03;;;;;;;0.10;0.10;;;;;;;;;;4935105;28;20028;-78
2023/05/06 09:37:50;;;;;;;0.10;0.10;;;;;;;;;;4929648;28;20508;-78
2023/05/06 09:40:36;;;;;;;0.10;0.10;;;;;;;;;;4931505;28;20057;-78
2023/05/06 09:43:22;;;;;;;0.10;0.10;;;;;;;;;;4932513;28;20114;-78
2023/05/06 09:46:08;;;;;;;0.10;0.10;;;;;;;;;;4945469;28;20405;-77
2023/05/06 09:48:55;;;;;;;0.10;0.10;;;;;;;;;;4932486;28;20038;-78
2023/05/06 09:51:46;;;;;;;0.17;0.17;;;;;;;;;;4931578;28;20089;-78
2023/05/06 09:54:32;;;;;;;0.20;0.20;;;;;;;;;;4932674;28;20088;-78
2023/05/06 09:57:18;;;;;;;0.10;0.10;;;;;;;;;;4931506;28;20043;-78
2023/05/06 10:00:06;;;;;;;0.10;0.10;;;;;;;;;;4934288;28;20043;-78
2023/05/06 10:03:01;;;;;;;0.10;0.10;;;;;;;;;;4931306;28;20043;-77
2023/05/06 10:05:47;;;;;;;0.10;0.10;;;;;;;;;;4931673;28;20066;-78
2023/05/06 10:08:34;;;;;;;0.10;0.10;;;;;;;;;;4945362;28;20210;-78
2023/05/06 10:11:20;;;;;;;0.10;0.10;;;;;;;;;;4932273;28;20504;-78
2023/05/06 10:14:05;;;;;;;0.10;0.10;;;;;;;;;;4946962;28;20028;-78
2023/05/06 10:16:52;;;;;;;0.20;0.20;;;;;;;;;;4933211;28;20137;-78
2023/05/06 10:19:49;;;;;;;0.10;0.10;;;;;;;;;;4934045;28;20234;-78
2023/05/06 10:22:48;;;;;;;0.10;0.10;;;;;;;;;;4931526;28;20243;-77
2023/05/06 10:25:38;;;;;;;0.10;0.10;;;;;;;;;;4931679;29;20054;-77
2023/05/06 10:28:24;;;;;;;0.10;0.10;;;;;;;;;;4933300;28;20661;-77
2023/05/06 10:31:13;;;;;;;0.10;0.10;;;;;;;;;;4931957;28;20101;-77
2023/05/06 10:34:01;;;;;;;0.17;0.17;;;;;;;;;;4931505;29;20304;-77
2023/05/06 10:36:49;;;;;;;0.10;0.10;;;;;;;;;;4930871;28;20067;-77
2023/05/06 10:39:35;;;;;;;0.20;0.20;;;;;;;;;;4934029;28;20077;-77
2023/05/06 10:42:32;;;;;;;0.10;0.10;;;;;;;;;;4933079;28;20038;-77
2023/05/06 10:45:18;;;;;;;0.10;0.10;;;;;;;;;;4935502;28;20402;-77
2023/05/06 10:48:09;;;;;;;0.10;0.10;;;;;;;;;;4929166;28;20500;-78
2023/05/06 10:51:27;;;;;;;0.20;0.20;;;;;;;;;;4930448;28;20453;-77
2023/05/06 10:54:19;;;;;;;0.10;0.10;;;;;;;;;;4916423;28;20047;-77
2023/05/06 10:57:08;;;;;;;0.10;0.10;;;;;;;;;;4933472;28;20063;-78
2023/05/06 10:59:57;;;;;;;0.10;0.10;;;;;;;;;;4932613;28;20327;-78
2023/05/06 11:02:42;;;;;;;0.10;0.10;;;;;;;;;;4931876;28;20118;-78
2023/05/06 11:05:28;;;;;;;0.15;0.15;;;;;;;;;;4933671;29;20031;-77
2023/05/06 11:08:20;;;;;;;0.10;0.10;;;;;;;;;;4926772;28;20063;-77
2023/05/06 11:11:24;;;;;;;0.10;0.10;;;;;;;;;;4936121;28;20115;-78
2023/05/06 11:14:15;;;;;;;0.20;0.20;;;;;;;;;;4939076;28;20587;-77
2023/05/06 11:17:05;;;;;;;0.10;0.10;;;;;;;;;;4934296;28;20043;-77
2023/05/06 11:20:09;;;;;;;0.10;0.10;;;;;;;;;;4937355;28;20042;-77
2023/05/06 11:22:55;;;;;;;0.20;0.20;;;;;;;;;;4936923;28;20035;-78
2023/05/06 11:25:42;;;;;;;0.10;0.10;;;;;;;;;;4937306;28;20055;-78
2023/05/06 11:28:28;;;;;;;0.20;0.20;;;;;;;;;;4937594;28;20094;-78
2023/05/06 11:31:14;;;;;;;0.20;0.20;;;;;;;;;;4933771;28;20038;-77
2023/05/06 11:34:04;;;;;;;0.20;0.20;;;;;;;;;;4939471;28;20069;-78
2023/05/06 11:37:01;;;;;;;0.20;0.20;;;;;;;;;;4936815;28;20063;-78
2023/05/06 11:39:47;;;;;;;0.20;0.20;;;;;;;;;;4938476;28;20408;-77
2023/05/06 11:42:36;;;;;;;0.10;0.10;;;;;;;;;;4936510;28;20126;-78
2023/05/06 11:45:24;;;;;;;0.30;0.30;;;;;;;;;;4936862;28;20020;-78
2023/05/06 11:48:14;;;;;;;0.10;0.10;;;;;;;;;;4939396;28;20040;-78
2023/05/06 11:51:01;;;;;;;0.10;0.10;;;;;;;;;;4933902;28;20106;-77
2023/05/06 11:53:47;;;;;;;0.17;0.17;;;;;;;;;;4938514;28;20418;-78
2023/05/06 11:56:46;;;;;;;0.20;0.20;;;;;;;;;;4935574;28;20045;-78
2023/05/06 11:59:36;;;;;;;0.10;0.10;;;;;;;;;;4939989;28;20028;-78
2023/05/06 12:02:22;;;;;;;0.10;0.10;;;;;;;;;;4935914;28;20049;-78
2023/05/06 12:05:08;;;;;;;0.20;0.20;;;;;;;;;;4937690;28;20036;-79
2023/05/06 12:07:54;;;;;;;0.20;0.20;;;;;;;;;;4937204;28;20036;-79
2023/05/06 12:10:40;;;;;;;0.10;0.10;;;;;;;;;;4935198;28;20027;-79
2023/05/06 12:13:26;;;;;;;0.20;0.20;;;;;;;;;;4937530;28;20078;-79
2023/05/06 12:16:14;;;;;;;0.10;0.10;;;;;;;;;;4938843;29;20056;-80
2023/05/06 12:19:00;;;;;;;0.10;0.10;;;;;;;;;;4938120;28;20035;-79
2023/05/06 12:21:49;;;;;;;0.00;0.00;;;;;;;;;;4923499;29;20144;-79
2023/05/06 12:24:35;;;;;;;0.00;0.00;;;;;;;;;;4933628;28;20036;-79
2023/05/06 12:27:47;;;;;;;0.05;0.05;;;;;;;;;;4937082;29;20389;-79
2023/05/06 12:30:33;;;;;;;0.10;0.10;;;;;;;;;;4933248;29;20050;-80
2023/05/06 12:33:19;;;;;;;0.20;0.20;;;;;;;;;;4937971;28;20637;-78
2023/05/06 12:36:06;;;;;;;0.20;0.20;;;;;;;;;;4937619;28;20069;-79
2023/05/06 12:38:56;;;;;;;0.10;0.10;;;;;;;;;;4936779;28;20424;-79
2023/05/06 12:41:43;;;;;;;0.10;0.10;;;;;;;;;;4933792;28;20047;-79
2023/05/06 12:44:39;;;;;;;0.00;0.00;;;;;;;;;;4936570;28;20067;-79
2023/05/06 12:47:25;;;;;;;0.00;0.00;;;;;;;;;;4938756;28;20034;-79
2023/05/06 12:50:10;;;;;;;0.00;0.00;;;;;;;;;;4949028;28;20051;-79
2023/05/06 12:52:56;;;;;;;0.10;0.10;;;;;;;;;;4933301;28;20118;-79
2023/05/06 12:58:26;;;;;;;0.05;0.05;;;;;;;;;;5157660;23;20062;-91
2023/05/06 13:01:12;;;;;;;0.00;0.00;;;;;;;;;;4958476;28;20720;-91
2023/05/06 13:03:58;;;;;;;0.03;0.03;;;;;;;;;;4993539;23;20135;-79
2023/05/06 13:06:43;;;;;;;0.03;0.03;;;;;;;;;;4943796;28;20042;-79
2023/05/06 13:09:29;;;;;;;0.10;0.10;;;;;;;;;;4958477;28;20066;-78
2023/05/06 13:12:15;;;;;;;0.00;0.00;;;;;;;;;;4957898;28;20485;-78
2023/05/06 13:15:01;;;;;;;0.00;0.00;;;;;;;;;;4959159;28;20362;-79
2023/05/06 13:17:47;;;;;;;0.10;0.10;;;;;;;;;;4962475;28;20129;-79
2023/05/06 13:20:33;;;;;;;0.00;0.00;;;;;;;;;;4959897;28;20075;-79
2023/05/06 13:23:19;;;;;;;0.00;0.00;;;;;;;;;;4944072;28;20508;-78
2023/05/06 13:26:04;;;;;;;0.00;0.00;;;;;;;;;;4940424;28;20057;-79
2023/05/06 13:28:50;;;;;;;0.00;0.00;;;;;;;;;;4939037;28;20038;-78
2023/05/06 13:31:36;;;;;;;0.00;0.00;;;;;;;;;;4956441;28;20125;-78
2023/05/06 13:34:21;;;;;;;0.05;0.05;;;;;;;;;;4956292;28;20518;-78
2023/05/06 13:37:13;;;;;;;0.03;0.03;;;;;;;;;;4957923;28;20314;-79
2023/05/06 13:39:59;;;;;;;0.10;0.10;;;;;;;;;;4945916;28;20039;-78
2023/05/06 13:42:45;;;;;;;0.00;0.00;;;;;;;;;;4957692;28;20026;-78
2023/05/06 13:45:34;;;;;;;0.00;0.00;;;;;;;;;;4957825;28;20414;-78
2023/05/06 13:48:20;;;;;;;0.00;0.00;;;;;;;;;;4958997;28;20113;-78
2023/05/06 13:51:05;;;;;;;0.00;0.00;;;;;;;;;;4959484;28;20038;-78
2023/05/06 13:53:51;;;;;;;0.10;0.10;;;;;;;;;;4958500;28;20034;-78
2023/05/06 13:56:37;;;;;;;0.10;0.10;;;;;;;;;;4958276;28;20039;-78
2023/05/06 13:59:23;;;;;;;0.10;0.10;;;;;;;;;;4960833;28;20030;-77
2023/05/06 14:02:08;;;;;;;0.10;0.10;;;;;;;;;;4956540;28;20534;-78
2023/05/06 14:04:54;;;;;;;0.10;0.10;;;;;;;;;;4958769;28;20098;-78
2023/05/06 14:07:40;;;;;;;0.10;0.10;;;;;;;;;;4959507;28;20031;-79
2023/05/06 14:10:26;;;;;;;0.10;0.10;;;;;;;;;;4943598;28;20566;-78
2023/05/06 14:13:12;;;;;;;0.10;0.10;;;;;;;;;;4957438;28;20100;-78
2023/05/06 14:16:00;;;;;;;0.10;0.10;;;;;;;;;;4944544;28;20039;-78
2023/05/06 14:18:46;;;;;;;0.10;0.10;;;;;;;;;;4959006;28;20062;-78
2023/05/06 14:21:32;;;;;;;0.10;0.10;;;;;;;;;;4956470;28;20050;-78
2023/05/06 14:24:17;;;;;;;0.10;0.10;;;;;;;;;;4931818;28;20108;-78
2023/05/06 14:27:03;;;;;;;0.10;0.10;;;;;;;;;;4957466;28;20066;-78
2023/05/06 14:29:49;;;;;;;0.10;0.10;;;;;;;;;;4958647;28;20105;-78
2023/05/06 14:32:35;;;;;;;0.10;0.10;;;;;;;;;;4948648;28;20035;-78
2023/05/06 14:35:20;;;;;;;0.20;0.20;;;;;;;;;;4956208;28;20067;-78
2023/05/06 14:38:06;;;;;;;0.10;0.10;;;;;;;;;;4959259;28;20121;-78
2023/05/06 14:40:52;;;;;;;0.10;0.10;;;;;;;;;;4956698;28;20049;-78
2023/05/06 14:43:38;;;;;;;0.10;0.10;;;;;;;;;;4956663;28;20034;-78
2023/05/06 14:46:24;;;;;;;0.10;0.10;;;;;;;;;;4956410;28;20039;-75
2023/05/06 14:49:09;;;;;;;0.10;0.10;;;;;;;;;;4958126;28;20399;-78
2023/05/06 14:51:56;;;;;;;0.05;0.05;;;;;;;;;;4957674;28;20062;-78
2023/05/06 14:54:42;;;;;;;0.10;0.10;;;;;;;;;;4954619;28;20887;-78
2023/05/06 14:57:27;;;;;;;0.10;0.10;;;;;;;;;;4956025;28;20518;-78
2023/05/06 15:00:13;;;;;;;0.13;0.13;;;;;;;;;;4954094;28;20070;-78
2023/05/06 15:02:59;;;;;;;0.00;0.00;;;;;;;;;;4956985;28;20035;-77
2023/05/06 15:05:45;;;;;;;0.10;0.10;;;;;;;;;;4941331;28;20030;-77
2023/05/06 15:08:31;;;;;;;0.10;0.10;;;;;;;;;;4955503;28;20162;-77
2023/05/06 15:11:16;;;;;;;0.00;0.00;;;;;;;;;;4956095;28;20043;-78
2023/05/06 15:14:02;;;;;;;0.03;0.03;;;;;;;;;;4957765;28;20167;-78
2023/05/06 15:16:48;;;;;;;0.00;0.00;;;;;;;;;;4941253;28;20081;-78
2023/05/06 15:19:34;;;;;;;0.10;0.10;;;;;;;;;;4937634;28;20058;-77
2023/05/06 15:22:19;;;;;;;0.10;0.10;;;;;;;;;;4956273;28;20042;-78
2023/05/06 15:25:06;;;;;;;0.10;0.10;;;;;;;;;;4956878;28;20034;-78
2023/05/06 15:27:51;;;;;;;0.10;0.10;;;;;;;;;;4955619;28;20046;-77
2023/05/06 15:30:38;;;;;;;0.00;0.00;;;;;;;;;;4953408;28;20035;-78
2023/05/06 15:33:24;;;;;;;0.10;0.10;;;;;;;;;;4957161;28;20164;-78
2023/05/06 15:36:10;;;;;;;0.00;0.00;;;;;;;;;;4956568;28;20058;-77
2023/05/06 15:38:57;;;;;;;0.10;0.10;;;;;;;;;;4953282;28;20042;-77
2023/05/06 15:41:43;;;;;;;0.10;0.10;;;;;;;;;;4955228;28;20114;-77
2023/05/06 15:44:28;;;;;;;0.10;0.10;;;;;;;;;;4953693;28;20046;-77
2023/05/06 15:47:14;;;;;;;0.05;0.05;;;;;;;;;;4934049;28;20042;-77
2023/05/06 15:50:00;;;;;;;0.10;0.10;;;;;;;;;;4955481;28;20035;-77
2023/05/06 15:52:46;;;;;;;0.10;0.10;;;;;;;;;;4942259;28;20349;-77
2023/05/06 15:55:32;;;;;;;0.00;0.00;;;;;;;;;;4957301;28;20071;-77
2023/05/06 15:58:17;;;;;;;0.10;0.10;;;;;;;;;;4947637;28;20483;-77
2023/05/06 16:01:03;;;;;;;0.10;0.10;;;;;;;;;;4957802;28;20078;-77
2023/05/06 16:03:49;;;;;;;0.10;0.10;;;;;;;;;;4959053;28;20058;-77
2023/05/06 16:06:35;;;;;;;0.00;0.00;;;;;;;;;;4959778;28;20110;-77
2023/05/06 16:09:20;;;;;;;0.00;0.00;;;;;;;;;;4960438;28;20066;-77
2023/05/06 16:12:09;;;;;;;0.10;0.10;;;;;;;;;;4958872;28;20594;-77
2023/05/06 16:14:54;;;;;;;0.10;0.10;;;;;;;;;;4957091;28;20049;-77
2023/05/06 16:17:40;;;;;;;0.10;0.10;;;;;;;;;;4959436;28;20126;-77
2023/05/06 16:20:26;;;;;;;0.10;0.10;;;;;;;;;;4959039;28;20407;-77
2023/05/06 16:23:12;;;;;;;0.13;0.13;;;;;;;;;;4961458;28;20074;-77
2023/05/06 16:25:59;;;;;;;0.10;0.10;;;;;;;;;;4959556;28;20039;-77
2023/05/06 16:28:45;;;;;;;0.03;0.03;;;;;;;;;;4944642;28;20085;-77
2023/05/06 16:31:31;;;;;;;0.10;0.10;;;;;;;;;;4958008;28;20240;-77
2023/05/06 16:34:19;;;;;;;0.10;0.10;;;;;;;;;;4957860;28;20518;-78
2023/05/06 16:37:06;;;;;;;0.10;0.10;;;;;;;;;;4959181;28;20049;-77
2023/05/06 16:39:52;;;;;;;0.10;0.10;;;;;;;;;;4958557;28;20097;-77
2023/05/06 16:42:43;;;;;;;0.10;0.10;;;;;;;;;;4959443;28;20118;-78
2023/05/06 16:45:29;;;;;;;0.00;0.00;;;;;;;;;;4937057;28;20035;-77
2023/05/06 16:48:15;;;;;;;0.10;0.10;;;;;;;;;;4959142;28;20035;-77